Fykan — LLDJ — position and weather

sailwx.info

Track history (hours):
 
Tides and Currents Weather Stations Pressure Air Temp Water Temp Dewpoint Dewpoint Depression Visibility Wind Speed Wind Dir Waves Ship Positions

Fykan

Last reported at 2014-Oct-20 06:23 UTC. Time now 2014-Oct-20 09:56 UTC.
Position N 66°36' E 012°59'.

Length 52 m; draft 3.3 m.

Type: Ship. MMSI: 259681000.

Date/timePositionNaut miles runAvg speedWind from/ knotsBaromVisibWave heightAir tempDewpointWater temp
2014-Oct-20 06:23N 66°36' E 012°59'4 5.0
2014-Oct-20 05:32N 66°34' E 012°50'3 0.4
2014-Oct-19 21:19N 66°35' E 012°42'7 8.1
2014-Oct-19 20:31N 66°34' E 012°59'5 2.4
2014-Oct-19 18:30N 66°34' E 013°11'5 1.6
2014-Oct-19 15:18N 66°36' E 012°59'4 5.6
2014-Oct-19 14:33N 66°34' E 012°50'4 0.2
2014-Oct-18 13:05N 66°36' E 012°41'4 7.9
2014-Oct-18 12:33N 66°34' E 012°50'8 2.5
2014-Oct-18 09:12N 66°33' E 013°12'6 2.0
2014-Oct-18 06:21N 66°36' E 012°59'4 5.1
2014-Oct-18 05:31N 66°34' E 012°50'1 0.2
2014-Oct-17 20:33N 66°34' E 012°47'3 0.7
2014-Oct-17 16:31N 66°34' E 012°54'2 0.3
2014-Oct-17 10:29N 66°34' E 012°49'5 0.9
2014-Oct-17 05:09N 66°36' E 012°59'4 6.6
2014-Oct-17 04:31N 66°34' E 012°50'2 0.2
2014-Oct-16 18:23N 66°34' E 012°47'5 5.9
2014-Oct-16 17:33N 66°35' E 012°59'1 0.4
2014-Oct-16 14:24N 66°36' E 012°59'5 5.9
2014-Oct-16 13:33N 66°34' E 012°48'2 0.8
2014-Oct-16 10:32N 66°34' E 012°53'3 0.7
2014-Oct-16 06:21N 66°36' E 012°59'4 5.2
2014-Oct-16 05:33N 66°34' E 012°50'4 0.5
2014-Oct-15 20:32N 66°36' E 012°42'7 1.1
2014-Oct-15 14:23N 66°36' E 012°59'5 6.1
2014-Oct-15 13:32N 66°34' E 012°47'0 0.1
2014-Oct-15 10:31N 66°34' E 012°47'5 1.3
2014-Oct-15 06:22N 66°36' E 012°59'4 5.2
2014-Oct-15 05:33N 66°34' E 012°50'1 0.1
2014-Oct-14 20:32N 66°34' E 012°52'1 0.2
2014-Oct-14 16:33N 66°34' E 012°54'5 1.0
2014-Oct-14 11:14N 66°36' E 012°41'5 7.3
2014-Oct-14 10:32N 66°34' E 012°54'8 3.4
2014-Oct-14 08:14N 66°36' E 013°12'5 1.9
2014-Oct-14 05:21N 66°36' E 012°59'4 4.9
2014-Oct-14 04:33N 66°34' E 012°50'4 0.3
2014-Oct-13 14:30N 66°36' E 012°59'5 5.3
2014-Oct-13 13:33N 66°34' E 012°48'3 1.2
2014-Oct-13 11:21N 66°35' E 012°42'5 6.0
2014-Oct-13 10:33N 66°34' E 012°54'3 0.7
2014-Oct-13 06:18N 66°36' E 012°59'4 5.7
2014-Oct-13 05:33N 66°34' E 012°50'2 0.2
2014-Oct-12 21:09N 66°34' E 012°47'10 3.6
2014-Oct-12 18:31N 66°34' E 013°10'1 0.8
2014-Oct-12 17:04N 66°35' E 013°11'5 3.3
2014-Oct-12 15:32N 66°37' E 012°59'5 5.3
2014-Oct-12 14:30N 66°34' E 012°49'1 0.0
2014-Oct-11 10:28N 66°34' E 012°47'5 5.4
2014-Oct-11 09:33N 66°35' E 012°59'1 0.3
2014-Oct-11 06:21N 66°36' E 012°59'4 5.3
2014-Oct-11 05:33N 66°34' E 012°50'4 0.3
2014-Oct-10 17:09N 66°36' E 012°59'4 6.3
2014-Oct-10 16:31N 66°34' E 012°50'4 0.7
2014-Oct-10 11:13N 66°35' E 012°42'7 7.1
2014-Oct-10 10:18N 66°34' E 012°58'  
Track history (hours):
 
Tides and Currents Weather Stations Pressure Air Temp Water Temp Dewpoint Dewpoint Depression Visibility Wind Speed Wind Dir Waves Ship Positions

Fykan

Last reported at 2014-Oct-20 06:23 UTC. Time now 2014-Oct-20 09:56 UTC.
Position N 66°36' E 012°59'.

Length 52 m; draft 3.3 m.

Type: Ship. MMSI: 259681000.

Date/timePositionNaut miles runAvg speedWind from/ knotsBaromVisibWave heightAir tempDewpointWater temp
2014-Oct-20 06:23N 66°36' E 012°59'4 5.0
2014-Oct-20 05:32N 66°34' E 012°50'3 0.4
2014-Oct-19 21:19N 66°35' E 012°42'7 8.1
2014-Oct-19 20:31N 66°34' E 012°59'5 2.4
2014-Oct-19 18:30N 66°34' E 013°11'5 1.6
2014-Oct-19 15:18N 66°36' E 012°59'4 5.6
2014-Oct-19 14:33N 66°34' E 012°50'4 0.2
2014-Oct-18 13:05N 66°36' E 012°41'4 7.9
2014-Oct-18 12:33N 66°34' E 012°50'8 2.5
2014-Oct-18 09:12N 66°33' E 013°12'6 2.0
2014-Oct-18 06:21N 66°36' E 012°59'4 5.1
2014-Oct-18 05:31N 66°34' E 012°50'1 0.2
2014-Oct-17 20:33N 66°34' E 012°47'3 0.7
2014-Oct-17 16:31N 66°34' E 012°54'2 0.3
2014-Oct-17 10:29N 66°34' E 012°49'5 0.9
2014-Oct-17 05:09N 66°36' E 012°59'4 6.6
2014-Oct-17 04:31N 66°34' E 012°50'2 0.2
2014-Oct-16 18:23N 66°34' E 012°47'5 5.9
2014-Oct-16 17:33N 66°35' E 012°59'1 0.4
2014-Oct-16 14:24N 66°36' E 012°59'5 5.9
2014-Oct-16 13:33N 66°34' E 012°48'2 0.8
2014-Oct-16 10:32N 66°34' E 012°53'3 0.7
2014-Oct-16 06:21N 66°36' E 012°59'4 5.2
2014-Oct-16 05:33N 66°34' E 012°50'4 0.5
2014-Oct-15 20:32N 66°36' E 012°42'7 1.1
2014-Oct-15 14:23N 66°36' E 012°59'5 6.1
2014-Oct-15 13:32N 66°34' E 012°47'0 0.1
2014-Oct-15 10:31N 66°34' E 012°47'5 1.3
2014-Oct-15 06:22N 66°36' E 012°59'4 5.2
2014-Oct-15 05:33N 66°34' E 012°50'1 0.1
2014-Oct-14 20:32N 66°34' E 012°52'1 0.2
2014-Oct-14 16:33N 66°34' E 012°54'5 1.0
2014-Oct-14 11:14N 66°36' E 012°41'5 7.3
2014-Oct-14 10:32N 66°34' E 012°54'8 3.4
2014-Oct-14 08:14N 66°36' E 013°12'5 1.9
2014-Oct-14 05:21N 66°36' E 012°59'4 4.9
2014-Oct-14 04:33N 66°34' E 012°50'4 0.3
2014-Oct-13 14:30N 66°36' E 012°59'5 5.3
2014-Oct-13 13:33N 66°34' E 012°48'3 1.2
2014-Oct-13 11:21N 66°35' E 012°42'5 6.0
2014-Oct-13 10:33N 66°34' E 012°54'3 0.7
2014-Oct-13 06:18N 66°36' E 012°59'4 5.7
2014-Oct-13 05:33N 66°34' E 012°50'2 0.2
2014-Oct-12 21:09N 66°34' E 012°47'10 3.6
2014-Oct-12 18:31N 66°34' E 013°10'1 0.8
2014-Oct-12 17:04N 66°35' E 013°11'5 3.3
2014-Oct-12 15:32N 66°37' E 012°59'5 5.3
2014-Oct-12 14:30N 66°34' E 012°49'1 0.0
2014-Oct-11 10:28N 66°34' E 012°47'5 5.4
2014-Oct-11 09:33N 66°35' E 012°59'1 0.3
2014-Oct-11 06:21N 66°36' E 012°59'4 5.3
2014-Oct-11 05:33N 66°34' E 012°50'4 0.3
2014-Oct-10 17:09N 66°36' E 012°59'4 6.3
2014-Oct-10 16:31N 66°34' E 012°50'4 0.7
2014-Oct-10 11:13N 66°35' E 012°42'7 7.1
2014-Oct-10 10:18N 66°34' E 012°58'  

Dump ship's entire track history